sensor_id;sensor_type;location;lat;lon;timestamp;temperature;humidity
33955;DHT22;20233;50.804;7.126;2023-04-03T00:01:27;5.60;99.90
33955;DHT22;20233;50.804;7.126;2023-04-03T00:03:53;5.60;99.90
33955;DHT22;20233;50.804;7.126;2023-04-03T00:06:20;5.50;99.90
33955;DHT22;20233;50.804;7.126;2023-04-03T00:08:45;5.60;99.90
33955;DHT22;20233;50.804;7.126;2023-04-03T00:11:11;5.60;99.90
33955;DHT22;20233;50.804;7.126;2023-04-03T00:13:37;5.60;99.90
33955;DHT22;20233;50.804;7.126;2023-04-03T00:16:03;5.60;99.90
33955;DHT22;20233;50.804;7.126;2023-04-03T00:18:29;5.60;99.90
33955;DHT22;20233;50.804;7.126;2023-04-03T00:20:55;5.60;99.90
33955;DHT22;20233;50.804;7.126;2023-04-03T00:23:21;5.60;99.90
33955;DHT22;20233;50.804;7.126;2023-04-03T00:25:49;5.60;99.90
33955;DHT22;20233;50.804;7.126;2023-04-03T00:28:15;5.60;99.90
33955;DHT22;20233;50.804;7.126;2023-04-03T00:30:41;5.40;99.90
33955;DHT22;20233;50.804;7.126;2023-04-03T00:33:06;5.40;99.90
33955;DHT22;20233;50.804;7.126;2023-04-03T00:35:33;5.50;99.90
33955;DHT22;20233;50.804;7.126;2023-04-03T00:37:59;5.40;99.90
33955;DHT22;20233;50.804;7.126;2023-04-03T00:40:26;5.50;99.90
33955;DHT22;20233;50.804;7.126;2023-04-03T00:42:57;5.50;99.90
33955;DHT22;20233;50.804;7.126;2023-04-03T00:45:29;5.40;99.90
33955;DHT22;20233;50.804;7.126;2023-04-03T00:47:55;5.50;99.90
33955;DHT22;20233;50.804;7.126;2023-04-03T00:50:21;5.40;99.90
33955;DHT22;20233;50.804;7.126;2023-04-03T00:52:48;5.40;99.90
33955;DHT22;20233;50.804;7.126;2023-04-03T00:55:15;5.40;99.90
33955;DHT22;20233;50.804;7.126;2023-04-03T00:57:41;5.40;99.90
33955;DHT22;20233;50.804;7.126;2023-04-03T01:00:10;5.40;99.90
33955;DHT22;20233;50.804;7.126;2023-04-03T01:02:38;5.30;99.90
33955;DHT22;20233;50.804;7.126;2023-04-03T01:05:06;5.30;99.90
33955;DHT22;20233;50.804;7.126;2023-04-03T01:07:33;5.30;99.90
33955;DHT22;20233;50.804;7.126;2023-04-03T01:10:02;5.30;99.90
33955;DHT22;20233;50.804;7.126;2023-04-03T01:12:34;5.30;99.90
33955;DHT22;20233;50.804;7.126;2023-04-03T01:15:04;5.30;99.90
33955;DHT22;20233;50.804;7.126;2023-04-03T01:17:40;5.30;99.90
33955;DHT22;20233;50.804;7.126;2023-04-03T01:23:23;5.20;99.90
33955;DHT22;20233;50.804;7.126;2023-04-03T01:25:55;5.10;99.90
33955;DHT22;20233;50.804;7.126;2023-04-03T01:28:33;5.10;99.90
33955;DHT22;20233;50.804;7.126;2023-04-03T01:31:25;5.10;99.90
33955;DHT22;20233;50.804;7.126;2023-04-03T01:33:51;5.10;99.90
33955;DHT22;20233;50.804;7.126;2023-04-03T01:36:23;5.00;99.90
33955;DHT22;20233;50.804;7.126;2023-04-03T01:38:50;5.00;99.90
33955;DHT22;20233;50.804;7.126;2023-04-03T01:41:16;4.90;99.90
33955;DHT22;20233;50.804;7.126;2023-04-03T01:43:42;4.90;99.90
33955;DHT22;20233;50.804;7.126;2023-04-03T01:46:07;4.90;99.90
33955;DHT22;20233;50.804;7.126;2023-04-03T01:48:33;4.90;99.90
33955;DHT22;20233;50.804;7.126;2023-04-03T01:50:59;4.80;99.90
33955;DHT22;20233;50.804;7.126;2023-04-03T01:53:24;4.80;99.90
33955;DHT22;20233;50.804;7.126;2023-04-03T01:55:50;4.80;99.90
33955;DHT22;20233;50.804;7.126;2023-04-03T01:58:15;4.70;99.90
33955;DHT22;20233;50.804;7.126;2023-04-03T02:00:41;4.70;99.90
33955;DHT22;20233;50.804;7.126;2023-04-03T02:03:07;4.60;99.90
33955;DHT22;20233;50.804;7.126;2023-04-03T02:05:33;4.60;99.90
33955;DHT22;20233;50.804;7.126;2023-04-03T02:07:58;4.60;99.90
33955;DHT22;20233;50.804;7.126;2023-04-03T02:10:24;4.60;99.90
33955;DHT22;20233;50.804;7.126;2023-04-03T02:12:49;4.50;99.90
33955;DHT22;20233;50.804;7.126;2023-04-03T02:15:15;4.50;99.90
33955;DHT22;20233;50.804;7.126;2023-04-03T02:17:42;4.50;99.90
33955;DHT22;20233;50.804;7.126;2023-04-03T02:20:08;4.40;99.90
33955;DHT22;20233;50.804;7.126;2023-04-03T02:22:34;4.40;99.90
33955;DHT22;20233;50.804;7.126;2023-04-03T02:24:59;4.40;99.90
33955;DHT22;20233;50.804;7.126;2023-04-03T02:27:26;4.30;99.90
33955;DHT22;20233;50.804;7.126;2023-04-03T02:29:52;4.30;99.90
33955;DHT22;20233;50.804;7.126;2023-04-03T02:32:17;4.30;99.90
33955;DHT22;20233;50.804;7.126;2023-04-03T02:34:44;4.20;99.90
33955;DHT22;20233;50.804;7.126;2023-04-03T02:37:09;4.20;99.90
33955;DHT22;20233;50.804;7.126;2023-04-03T02:39:35;4.20;99.90
33955;DHT22;20233;50.804;7.126;2023-04-03T02:42:01;4.10;99.90
33955;DHT22;20233;50.804;7.126;2023-04-03T02:44:26;4.10;99.90
33955;DHT22;20233;50.804;7.126;2023-04-03T02:46:52;4.10;99.90
33955;DHT22;20233;50.804;7.126;2023-04-03T02:49:17;4.10;99.90
33955;DHT22;20233;50.804;7.126;2023-04-03T02:51:44;4.10;99.90
33955;DHT22;20233;50.804;7.126;2023-04-03T02:54:11;4.00;99.90
33955;DHT22;20233;50.804;7.126;2023-04-03T02:56:37;4.00;99.90
33955;DHT22;20233;50.804;7.126;2023-04-03T02:59:02;3.90;99.90
33955;DHT22;20233;50.804;7.126;2023-04-03T03:01:28;4.00;99.90
33955;DHT22;20233;50.804;7.126;2023-04-03T03:03:57;3.90;99.90
33955;DHT22;20233;50.804;7.126;2023-04-03T03:06:23;3.90;99.90
33955;DHT22;20233;50.804;7.126;2023-04-03T03:08:48;3.90;99.90
33955;DHT22;20233;50.804;7.126;2023-04-03T03:11:14;3.90;99.90
33955;DHT22;20233;50.804;7.126;2023-04-03T03:13:40;3.80;99.90
33955;DHT22;20233;50.804;7.126;2023-04-03T03:16:06;3.80;99.90
33955;DHT22;20233;50.804;7.126;2023-04-03T03:18:32;3.70;99.90
33955;DHT22;20233;50.804;7.126;2023-04-03T03:20:59;3.70;99.90
33955;DHT22;20233;50.804;7.126;2023-04-03T03:23:26;3.60;99.90
33955;DHT22;20233;50.804;7.126;2023-04-03T03:25:57;3.60;99.90
33955;DHT22;20233;50.804;7.126;2023-04-03T03:28:23;3.60;99.90
33955;DHT22;20233;50.804;7.126;2023-04-03T03:30:48;3.50;99.90
33955;DHT22;20233;50.804;7.126;2023-04-03T03:33:14;3.50;99.90
33955;DHT22;20233;50.804;7.126;2023-04-03T03:35:40;3.60;99.90
33955;DHT22;20233;50.804;7.126;2023-04-03T03:38:06;3.50;99.90
33955;DHT22;20233;50.804;7.126;2023-04-03T03:40:31;3.40;99.90
33955;DHT22;20233;50.804;7.126;2023-04-03T03:42:57;3.30;99.90
33955;DHT22;20233;50.804;7.126;2023-04-03T03:45:22;3.30;99.90
33955;DHT22;20233;50.804;7.126;2023-04-03T03:47:49;3.30;99.90
33955;DHT22;20233;50.804;7.126;2023-04-03T03:50:15;3.20;99.90
33955;DHT22;20233;50.804;7.126;2023-04-03T03:52:41;3.30;99.90
33955;DHT22;20233;50.804;7.126;2023-04-03T03:55:06;3.20;99.90
33955;DHT22;20233;50.804;7.126;2023-04-03T03:57:32;3.20;99.90
33955;DHT22;20233;50.804;7.126;2023-04-03T03:59:58;3.20;99.90
33955;DHT22;20233;50.804;7.126;2023-04-03T04:02:23;3.10;99.90
33955;DHT22;20233;50.804;7.126;2023-04-03T04:04:50;3.10;99.90
33955;DHT22;20233;50.804;7.126;2023-04-03T04:07:16;3.10;99.90
33955;DHT22;20233;50.804;7.126;2023-04-03T04:09:41;3.00;99.90
33955;DHT22;20233;50.804;7.126;2023-04-03T04:12:07;3.00;99.90
33955;DHT22;20233;50.804;7.126;2023-04-03T04:14:32;3.00;99.90
33955;DHT22;20233;50.804;7.126;2023-04-03T04:16:58;2.90;99.90
33955;DHT22;20233;50.804;7.126;2023-04-03T04:19:23;2.90;99.90
33955;DHT22;20233;50.804;7.126;2023-04-03T04:21:49;2.80;99.90
33955;DHT22;20233;50.804;7.126;2023-04-03T04:24:16;2.80;99.90
33955;DHT22;20233;50.804;7.126;2023-04-03T04:26:42;2.80;99.90
33955;DHT22;20233;50.804;7.126;2023-04-03T04:29:09;2.80;99.90
33955;DHT22;20233;50.804;7.126;2023-04-03T04:31:35;2.70;99.90
33955;DHT22;20233;50.804;7.126;2023-04-03T04:34:01;2.80;99.90
33955;DHT22;20233;50.804;7.126;2023-04-03T04:36:26;2.70;99.90
33955;DHT22;20233;50.804;7.126;2023-04-03T04:38:53;2.70;99.90
33955;DHT22;20233;50.804;7.126;2023-04-03T04:41:20;2.70;99.90
33955;DHT22;20233;50.804;7.126;2023-04-03T04:43:50;2.60;99.90
33955;DHT22;20233;50.804;7.126;2023-04-03T04:46:17;2.60;99.90
33955;DHT22;20233;50.804;7.126;2023-04-03T04:48:42;2.60;99.90
33955;DHT22;20233;50.804;7.126;2023-04-03T04:51:08;2.60;99.90
33955;DHT22;20233;50.804;7.126;2023-04-03T04:53:34;2.60;99.90
33955;DHT22;20233;50.804;7.126;2023-04-03T04:56:00;2.70;99.90
33955;DHT22;20233;50.804;7.126;2023-04-03T04:58:25;2.70;99.90
33955;DHT22;20233;50.804;7.126;2023-04-03T05:01:02;2.60;99.90
33955;DHT22;20233;50.804;7.126;2023-04-03T05:03:31;2.60;99.90
33955;DHT22;20233;50.804;7.126;2023-04-03T05:06:00;2.60;99.90
33955;DHT22;20233;50.804;7.126;2023-04-03T05:08:27;2.60;99.90
33955;DHT22;20233;50.804;7.126;2023-04-03T05:10:57;2.60;99.90
33955;DHT22;20233;50.804;7.126;2023-04-03T05:13:26;2.60;99.90
33955;DHT22;20233;50.804;7.126;2023-04-03T05:15:56;2.60;99.90
33955;DHT22;20233;50.804;7.126;2023-04-03T05:18:23;2.50;99.90
33955;DHT22;20233;50.804;7.126;2023-04-03T05:20:52;2.50;99.90
33955;DHT22;20233;50.804;7.126;2023-04-03T05:23:20;2.80;99.90
33955;DHT22;20233;50.804;7.126;2023-04-03T05:28:15;2.70;99.90
33955;DHT22;20233;50.804;7.126;2023-04-03T05:30:44;2.60;99.90
33955;DHT22;20233;50.804;7.126;2023-04-03T05:33:10;2.60;99.90
33955;DHT22;20233;50.804;7.126;2023-04-03T05:35:37;2.70;99.90
33955;DHT22;20233;50.804;7.126;2023-04-03T05:38:07;2.70;99.90
33955;DHT22;20233;50.804;7.126;2023-04-03T05:40:34;2.70;99.90
33955;DHT22;20233;50.804;7.126;2023-04-03T05:43:00;2.70;99.90
33955;DHT22;20233;50.804;7.126;2023-04-03T05:45:25;2.70;99.90
33955;DHT22;20233;50.804;7.126;2023-04-03T05:47:51;2.80;99.90
33955;DHT22;20233;50.804;7.126;2023-04-03T05:50:17;2.80;99.90
33955;DHT22;20233;50.804;7.126;2023-04-03T05:52:45;2.80;99.90
33955;DHT22;20233;50.804;7.126;2023-04-03T05:55:13;2.80;99.90
33955;DHT22;20233;50.804;7.126;2023-04-03T05:57:40;2.90;99.90
33955;DHT22;20233;50.804;7.126;2023-04-03T06:00:08;2.90;99.90
33955;DHT22;20233;50.804;7.126;2023-04-03T06:02:35;3.00;99.90
33955;DHT22;20233;50.804;7.126;2023-04-03T06:05:02;2.90;99.90
33955;DHT22;20233;50.804;7.126;2023-04-03T06:07:27;3.10;99.90
33955;DHT22;20233;50.804;7.126;2023-04-03T06:09:55;3.00;99.90
33955;DHT22;20233;50.804;7.126;2023-04-03T06:12:21;3.10;99.90
33955;DHT22;20233;50.804;7.126;2023-04-03T06:14:48;3.10;99.90
33955;DHT22;20233;50.804;7.126;2023-04-03T06:17:17;3.20;99.90
33955;DHT22;20233;50.804;7.126;2023-04-03T06:19:44;3.20;99.90
33955;DHT22;20233;50.804;7.126;2023-04-03T06:22:10;3.30;99.90
33955;DHT22;20233;50.804;7.126;2023-04-03T06:24:37;3.30;99.90
33955;DHT22;20233;50.804;7.126;2023-04-03T06:27:04;3.40;99.90
33955;DHT22;20233;50.804;7.126;2023-04-03T06:29:32;3.50;99.90
33955;DHT22;20233;50.804;7.126;2023-04-03T06:31:58;3.50;99.90
33955;DHT22;20233;50.804;7.126;2023-04-03T06:34:29;3.50;99.90
33955;DHT22;20233;50.804;7.126;2023-04-03T06:36:55;3.60;99.90
33955;DHT22;20233;50.804;7.126;2023-04-03T06:39:23;3.60;99.90
33955;DHT22;20233;50.804;7.126;2023-04-03T06:41:51;3.70;99.90
33955;DHT22;20233;50.804;7.126;2023-04-03T06:44:18;3.70;99.90
33955;DHT22;20233;50.804;7.126;2023-04-03T06:46:50;3.70;99.90
33955;DHT22;20233;50.804;7.126;2023-04-03T06:49:17;3.80;99.90
33955;DHT22;20233;50.804;7.126;2023-04-03T06:51:43;3.80;99.90
33955;DHT22;20233;50.804;7.126;2023-04-03T06:54:09;3.80;99.90
33955;DHT22;20233;50.804;7.126;2023-04-03T06:56:34;3.90;99.90
33955;DHT22;20233;50.804;7.126;2023-04-03T06:59:02;4.00;99.90
33955;DHT22;20233;50.804;7.126;2023-04-03T07:01:29;4.00;99.90
33955;DHT22;20233;50.804;7.126;2023-04-03T07:03:57;4.00;99.90
33955;DHT22;20233;50.804;7.126;2023-04-03T07:06:25;4.20;99.90
33955;DHT22;20233;50.804;7.126;2023-04-03T07:08:55;4.20;99.90
33955;DHT22;20233;50.804;7.126;2023-04-03T07:11:23;4.20;99.90
33955;DHT22;20233;50.804;7.126;2023-04-03T07:13:49;4.30;99.90
33955;DHT22;20233;50.804;7.126;2023-04-03T07:16:16;4.30;99.90
33955;DHT22;20233;50.804;7.126;2023-04-03T07:18:43;4.40;99.90
33955;DHT22;20233;50.804;7.126;2023-04-03T07:21:09;4.40;99.90
33955;DHT22;20233;50.804;7.126;2023-04-03T07:23:35;4.50;99.90
33955;DHT22;20233;50.804;7.126;2023-04-03T07:26:03;4.60;99.90
33955;DHT22;20233;50.804;7.126;2023-04-03T07:28:31;4.50;99.90
33955;DHT22;20233;50.804;7.126;2023-04-03T07:31:08;4.50;99.90
33955;DHT22;20233;50.804;7.126;2023-04-03T07:33:40;4.70;99.90
33955;DHT22;20233;50.804;7.126;2023-04-03T07:36:08;4.80;99.90
33955;DHT22;20233;50.804;7.126;2023-04-03T07:38:35;4.80;99.90
33955;DHT22;20233;50.804;7.126;2023-04-03T07:41:02;4.80;99.90
33955;DHT22;20233;50.804;7.126;2023-04-03T07:43:30;4.90;99.90
33955;DHT22;20233;50.804;7.126;2023-04-03T07:45:56;4.90;99.90
33955;DHT22;20233;50.804;7.126;2023-04-03T07:48:23;4.90;99.90
33955;DHT22;20233;50.804;7.126;2023-04-03T07:50:50;4.90;99.90
33955;DHT22;20233;50.804;7.126;2023-04-03T07:53:17;5.00;99.90
33955;DHT22;20233;50.804;7.126;2023-04-03T07:55:43;5.00;99.90
33955;DHT22;20233;50.804;7.126;2023-04-03T07:58:12;5.10;99.90
33955;DHT22;20233;50.804;7.126;2023-04-03T08:00:38;5.10;99.90
33955;DHT22;20233;50.804;7.126;2023-04-03T08:03:05;5.30;99.90
33955;DHT22;20233;50.804;7.126;2023-04-03T08:05:40;5.40;99.90
33955;DHT22;20233;50.804;7.126;2023-04-03T08:08:13;5.30;99.90
33955;DHT22;20233;50.804;7.126;2023-04-03T08:10:39;5.20;99.90
33955;DHT22;20233;50.804;7.126;2023-04-03T08:13:07;5.40;99.90
33955;DHT22;20233;50.804;7.126;2023-04-03T08:15:33;5.50;99.90
33955;DHT22;20233;50.804;7.126;2023-04-03T08:18:00;5.50;99.90
33955;DHT22;20233;50.804;7.126;2023-04-03T08:20:27;5.50;99.90
33955;DHT22;20233;50.804;7.126;2023-04-03T08:22:54;5.60;99.90
33955;DHT22;20233;50.804;7.126;2023-04-03T08:25:21;5.70;99.90
33955;DHT22;20233;50.804;7.126;2023-04-03T08:27:47;5.80;99.90
33955;DHT22;20233;50.804;7.126;2023-04-03T08:30:16;5.80;99.90
33955;DHT22;20233;50.804;7.126;2023-04-03T08:32:43;5.80;99.90
33955;DHT22;20233;50.804;7.126;2023-04-03T08:35:11;5.90;99.90
33955;DHT22;20233;50.804;7.126;2023-04-03T08:37:38;5.90;99.90
33955;DHT22;20233;50.804;7.126;2023-04-03T08:40:06;5.70;99.90
33955;DHT22;20233;50.804;7.126;2023-04-03T08:48:14;6.10;99.90
33955;DHT22;20233;50.804;7.126;2023-04-03T08:50:43;6.20;99.90
33955;DHT22;20233;50.804;7.126;2023-04-03T08:53:29;6.20;99.90
33955;DHT22;20233;50.804;7.126;2023-04-03T08:55:58;6.30;99.90
33955;DHT22;20233;50.804;7.126;2023-04-03T08:58:30;6.30;99.90
33955;DHT22;20233;50.804;7.126;2023-04-03T09:01:10;6.50;99.90
33955;DHT22;20233;50.804;7.126;2023-04-03T09:03:42;6.50;99.90
33955;DHT22;20233;50.804;7.126;2023-04-03T09:06:13;6.60;99.90
33955;DHT22;20233;50.804;7.126;2023-04-03T09:09:13;6.80;99.90
33955;DHT22;20233;50.804;7.126;2023-04-03T09:14:38;6.80;99.90
33955;DHT22;20233;50.804;7.126;2023-04-03T09:17:35;6.80;99.90
33955;DHT22;20233;50.804;7.126;2023-04-03T09:20:09;6.80;99.90
33955;DHT22;20233;50.804;7.126;2023-04-03T09:22:41;6.80;99.90
33955;DHT22;20233;50.804;7.126;2023-04-03T09:27:48;7.10;99.90
33955;DHT22;20233;50.804;7.126;2023-04-03T09:30:20;7.20;99.90
33955;DHT22;20233;50.804;7.126;2023-04-03T09:32:49;7.30;99.90
33955;DHT22;20233;50.804;7.126;2023-04-03T09:35:25;7.30;99.90
33955;DHT22;20233;50.804;7.126;2023-04-03T09:37:58;7.20;99.90
33955;DHT22;20233;50.804;7.126;2023-04-03T09:42:54;7.10;99.90
33955;DHT22;20233;50.804;7.126;2023-04-03T09:45:26;7.10;99.90
33955;DHT22;20233;50.804;7.126;2023-04-03T09:48:07;7.50;99.90
33955;DHT22;20233;50.804;7.126;2023-04-03T09:50:36;7.50;99.90
33955;DHT22;20233;50.804;7.126;2023-04-03T09:53:07;7.70;99.90
33955;DHT22;20233;50.804;7.126;2023-04-03T09:55:42;7.80;99.90
33955;DHT22;20233;50.804;7.126;2023-04-03T09:58:38;7.90;99.90
33955;DHT22;20233;50.804;7.126;2023-04-03T10:01:29;8.00;99.90
33955;DHT22;20233;50.804;7.126;2023-04-03T10:04:11;8.10;99.90
33955;DHT22;20233;50.804;7.126;2023-04-03T10:06:43;8.20;99.90
33955;DHT22;20233;50.804;7.126;2023-04-03T10:14:31;8.00;99.90
33955;DHT22;20233;50.804;7.126;2023-04-03T10:25:21;8.00;99.90
33955;DHT22;20233;50.804;7.126;2023-04-03T10:36:32;8.50;99.90
33955;DHT22;20233;50.804;7.126;2023-04-03T10:39:15;8.30;99.90
33955;DHT22;20233;50.804;7.126;2023-04-03T10:42:18;8.40;99.90
33955;DHT22;20233;50.804;7.126;2023-04-03T10:50:26;9.00;99.90
33955;DHT22;20233;50.804;7.126;2023-04-03T10:53:03;9.10;99.90
33955;DHT22;20233;50.804;7.126;2023-04-03T10:55:43;9.20;99.90
33955;DHT22;20233;50.804;7.126;2023-04-03T10:58:26;9.30;99.90
33955;DHT22;20233;50.804;7.126;2023-04-03T11:01:02;9.50;99.90
33955;DHT22;20233;50.804;7.126;2023-04-03T11:03:44;9.20;99.90
33955;DHT22;20233;50.804;7.126;2023-04-03T11:06:13;9.30;99.90
33955;DHT22;20233;50.804;7.126;2023-04-03T11:08:51;9.40;99.90
33955;DHT22;20233;50.804;7.126;2023-04-03T11:11:24;9.60;99.90
33955;DHT22;20233;50.804;7.126;2023-04-03T11:14:16;9.70;99.90
33955;DHT22;20233;50.804;7.126;2023-04-03T11:16:46;9.70;99.90
33955;DHT22;20233;50.804;7.126;2023-04-03T11:19:54;9.90;99.90
33955;DHT22;20233;50.804;7.126;2023-04-03T11:22:34;9.50;99.90
33955;DHT22;20233;50.804;7.126;2023-04-03T11:30:18;9.90;99.90
33955;DHT22;20233;50.804;7.126;2023-04-03T11:35:48;10.00;99.90
33955;DHT22;20233;50.804;7.126;2023-04-03T11:38:35;10.10;99.90
33955;DHT22;20233;50.804;7.126;2023-04-03T11:41:03;10.30;99.90
33955;DHT22;20233;50.804;7.126;2023-04-03T11:43:33;10.40;99.90
33955;DHT22;20233;50.804;7.126;2023-04-03T11:50:58;10.40;99.90
33955;DHT22;20233;50.804;7.126;2023-04-03T11:53:31;10.20;99.90
33955;DHT22;20233;50.804;7.126;2023-04-03T12:04:17;9.60;99.90
33955;DHT22;20233;50.804;7.126;2023-04-03T12:09:33;10.00;99.90
33955;DHT22;20233;50.804;7.126;2023-04-03T12:12:27;9.80;99.90
33955;DHT22;20233;50.804;7.126;2023-04-03T12:14:47;10.00;99.90
33955;DHT22;20233;50.804;7.126;2023-04-03T12:17:22;10.20;99.90
33955;DHT22;20233;50.804;7.126;2023-04-03T12:19:50;9.90;99.90
33955;DHT22;20233;50.804;7.126;2023-04-03T12:22:18;9.90;99.90
33955;DHT22;20233;50.804;7.126;2023-04-03T12:24:51;10.20;99.90
33955;DHT22;20233;50.804;7.126;2023-04-03T12:30:05;9.70;99.90
33955;DHT22;20233;50.804;7.126;2023-04-03T12:35:21;10.10;99.90
33955;DHT22;20233;50.804;7.126;2023-04-03T12:38:15;9.60;99.90
33955;DHT22;20233;50.804;7.126;2023-04-03T12:44:47;9.50;99.90
33955;DHT22;20233;50.804;7.126;2023-04-03T12:46:50;10.00;99.90
33955;DHT22;20233;50.804;7.126;2023-04-03T12:51:57;10.60;99.90
33955;DHT22;20233;50.804;7.126;2023-04-03T12:54:36;10.30;99.90
33955;DHT22;20233;50.804;7.126;2023-04-03T12:57:12;10.50;99.90
33955;DHT22;20233;50.804;7.126;2023-04-03T12:59:42;10.50;99.90
33955;DHT22;20233;50.804;7.126;2023-04-03T13:02:25;10.80;99.90
33955;DHT22;20233;50.804;7.126;2023-04-03T13:04:54;10.90;99.90
33955;DHT22;20233;50.804;7.126;2023-04-03T13:09:59;11.20;99.90
33955;DHT22;20233;50.804;7.126;2023-04-03T13:12:26;10.80;99.90
33955;DHT22;20233;50.804;7.126;2023-04-03T13:14:57;10.60;99.90
33955;DHT22;20233;50.804;7.126;2023-04-03T13:17:24;10.50;99.90
33955;DHT22;20233;50.804;7.126;2023-04-03T13:19:50;10.30;99.90
33955;DHT22;20233;50.804;7.126;2023-04-03T13:22:22;10.00;99.90
33955;DHT22;20233;50.804;7.126;2023-04-03T13:24:54;10.30;99.90
33955;DHT22;20233;50.804;7.126;2023-04-03T13:27:20;10.50;99.90
33955;DHT22;20233;50.804;7.126;2023-04-03T13:29:51;10.30;99.90
33955;DHT22;20233;50.804;7.126;2023-04-03T13:32:23;10.20;99.90
33955;DHT22;20233;50.804;7.126;2023-04-03T13:34:51;10.70;99.90
33955;DHT22;20233;50.804;7.126;2023-04-03T13:37:31;11.10;99.90
33955;DHT22;20233;50.804;7.126;2023-04-03T13:40:10;11.40;99.90
33955;DHT22;20233;50.804;7.126;2023-04-03T13:42:39;11.20;99.90
33955;DHT22;20233;50.804;7.126;2023-04-03T13:45:42;11.70;99.90
33955;DHT22;20233;50.804;7.126;2023-04-03T13:48:18;11.80;99.90
33955;DHT22;20233;50.804;7.126;2023-04-03T13:51:01;12.00;99.90
33955;DHT22;20233;50.804;7.126;2023-04-03T13:56:19;12.20;99.90
33955;DHT22;20233;50.804;7.126;2023-04-03T13:59:22;12.20;99.90
33955;DHT22;20233;50.804;7.126;2023-04-03T14:04:45;12.50;99.90
33955;DHT22;20233;50.804;7.126;2023-04-03T14:07:15;12.60;99.90
33955;DHT22;20233;50.804;7.126;2023-04-03T14:09:44;12.70;99.90
33955;DHT22;20233;50.804;7.126;2023-04-03T14:12:37;12.60;99.90
33955;DHT22;20233;50.804;7.126;2023-04-03T14:17:46;13.00;99.90
33955;DHT22;20233;50.804;7.126;2023-04-03T14:20:19;12.80;99.90
33955;DHT22;20233;50.804;7.126;2023-04-03T14:22:48;13.00;99.90
33955;DHT22;20233;50.804;7.126;2023-04-03T14:25:16;12.90;99.90
33955;DHT22;20233;50.804;7.126;2023-04-03T14:28:06;12.80;99.90
33955;DHT22;20233;50.804;7.126;2023-04-03T14:30:39;12.70;99.90
33955;DHT22;20233;50.804;7.126;2023-04-03T14:33:09;12.60;99.90
33955;DHT22;20233;50.804;7.126;2023-04-03T14:35:37;12.60;99.90
33955;DHT22;20233;50.804;7.126;2023-04-03T14:38:28;11.60;99.90
33955;DHT22;20233;50.804;7.126;2023-04-03T14:40:54;11.60;99.90
33955;DHT22;20233;50.804;7.126;2023-04-03T14:43:22;11.50;99.90
33955;DHT22;20233;50.804;7.126;2023-04-03T14:45:50;11.30;98.40
33955;DHT22;20233;50.804;7.126;2023-04-03T14:48:20;11.30;98.90
33955;DHT22;20233;50.804;7.126;2023-04-03T14:50:50;11.20;98.70
33955;DHT22;20233;50.804;7.126;2023-04-03T14:53:17;11.20;99.00
33955;DHT22;20233;50.804;7.126;2023-04-03T14:55:48;11.40;99.90
33955;DHT22;20233;50.804;7.126;2023-04-03T14:58:16;11.70;99.10
33955;DHT22;20233;50.804;7.126;2023-04-03T15:00:44;11.80;99.60
33955;DHT22;20233;50.804;7.126;2023-04-03T15:03:16;12.00;99.90
33955;DHT22;20233;50.804;7.126;2023-04-03T15:05:48;12.20;99.90
33955;DHT22;20233;50.804;7.126;2023-04-03T15:08:22;12.40;99.80
33955;DHT22;20233;50.804;7.126;2023-04-03T15:10:50;12.50;99.90
33955;DHT22;20233;50.804;7.126;2023-04-03T15:13:19;12.20;99.90
33955;DHT22;20233;50.804;7.126;2023-04-03T15:15:47;12.20;99.00
33955;DHT22;20233;50.804;7.126;2023-04-03T15:18:22;12.00;98.90
33955;DHT22;20233;50.804;7.126;2023-04-03T15:20:50;11.90;98.70
33955;DHT22;20233;50.804;7.126;2023-04-03T15:23:17;12.10;99.00
33955;DHT22;20233;50.804;7.126;2023-04-03T15:25:46;12.10;98.50
33955;DHT22;20233;50.804;7.126;2023-04-03T15:28:35;12.20;99.90
33955;DHT22;20233;50.804;7.126;2023-04-03T15:31:03;12.30;98.40
33955;DHT22;20233;50.804;7.126;2023-04-03T15:33:29;11.80;97.50
33955;DHT22;20233;50.804;7.126;2023-04-03T15:35:56;11.30;97.60
33955;DHT22;20233;50.804;7.126;2023-04-03T15:38:23;11.30;97.90
33955;DHT22;20233;50.804;7.126;2023-04-03T15:40:50;11.20;98.00
33955;DHT22;20233;50.804;7.126;2023-04-03T15:43:17;11.50;99.80
33955;DHT22;20233;50.804;7.126;2023-04-03T15:45:44;11.90;99.90
33955;DHT22;20233;50.804;7.126;2023-04-03T15:48:11;12.10;99.80
33955;DHT22;20233;50.804;7.126;2023-04-03T15:50:38;12.10;98.70
33955;DHT22;20233;50.804;7.126;2023-04-03T15:53:07;11.90;98.70
33955;DHT22;20233;50.804;7.126;2023-04-03T15:55:35;11.50;98.10
33955;DHT22;20233;50.804;7.126;2023-04-03T15:58:02;11.50;98.60
33955;DHT22;20233;50.804;7.126;2023-04-03T16:00:30;11.80;98.70
33955;DHT22;20233;50.804;7.126;2023-04-03T16:03:01;11.90;97.70
33955;DHT22;20233;50.804;7.126;2023-04-03T16:05:31;11.60;96.50
33955;DHT22;20233;50.804;7.126;2023-04-03T16:07:59;11.70;97.40
33955;DHT22;20233;50.804;7.126;2023-04-03T16:10:27;11.80;97.10
33955;DHT22;20233;50.804;7.126;2023-04-03T16:12:53;12.00;98.20
33955;DHT22;20233;50.804;7.126;2023-04-03T16:15:19;12.00;98.00
33955;DHT22;20233;50.804;7.126;2023-04-03T16:17:46;11.60;95.90
33955;DHT22;20233;50.804;7.126;2023-04-03T16:20:14;11.80;96.40
33955;DHT22;20233;50.804;7.126;2023-04-03T16:22:42;12.00;97.60
33955;DHT22;20233;50.804;7.126;2023-04-03T16:25:09;11.80;99.90
33955;DHT22;20233;50.804;7.126;2023-04-03T16:27:37;12.00;97.50
33955;DHT22;20233;50.804;7.126;2023-04-03T16:30:05;11.70;97.30
33955;DHT22;20233;50.804;7.126;2023-04-03T16:32:32;11.80;97.90
33955;DHT22;20233;50.804;7.126;2023-04-03T16:34:59;11.80;97.90
33955;DHT22;20233;50.804;7.126;2023-04-03T16:37:26;11.80;99.00
33955;DHT22;20233;50.804;7.126;2023-04-03T16:39:53;11.50;97.10
33955;DHT22;20233;50.804;7.126;2023-04-03T16:42:20;11.60;97.90
33955;DHT22;20233;50.804;7.126;2023-04-03T16:44:46;11.70;97.70
33955;DHT22;20233;50.804;7.126;2023-04-03T16:47:12;11.20;96.80
33955;DHT22;20233;50.804;7.126;2023-04-03T16:49:39;11.30;98.00
33955;DHT22;20233;50.804;7.126;2023-04-03T16:52:06;11.40;96.80
33955;DHT22;20233;50.804;7.126;2023-04-03T16:54:33;11.40;97.50
33955;DHT22;20233;50.804;7.126;2023-04-03T16:56:59;11.40;97.30
33955;DHT22;20233;50.804;7.126;2023-04-03T16:59:26;11.60;98.40
33955;DHT22;20233;50.804;7.126;2023-04-03T17:01:53;11.20;96.90
33955;DHT22;20233;50.804;7.126;2023-04-03T17:04:19;10.90;97.00
33955;DHT22;20233;50.804;7.126;2023-04-03T17:06:46;10.80;97.40
33955;DHT22;20233;50.804;7.126;2023-04-03T17:09:13;10.80;98.00
33955;DHT22;20233;50.804;7.126;2023-04-03T17:11:39;10.90;97.30
33955;DHT22;20233;50.804;7.126;2023-04-03T17:14:05;10.90;97.80
33955;DHT22;20233;50.804;7.126;2023-04-03T17:16:33;11.00;98.00
33955;DHT22;20233;50.804;7.126;2023-04-03T17:19:02;10.90;98.80
33955;DHT22;20233;50.804;7.126;2023-04-03T17:21:29;10.80;98.00
33955;DHT22;20233;50.804;7.126;2023-04-03T17:24:04;10.60;97.40
33955;DHT22;20233;50.804;7.126;2023-04-03T17:26:34;10.70;98.60
33955;DHT22;20233;50.804;7.126;2023-04-03T17:29:03;10.50;96.90
33955;DHT22;20233;50.804;7.126;2023-04-03T17:31:29;10.40;97.10